Time;durP1;ratioP1;P1;durP2;ratioP2;P2;SDS_P1;SDS_P2;PMS_P1;PMS_P2;Temp;Humidity;BMP_temperature;BMP_pressure;BME280_temperature;BME280_humidity;BME280_pressure;Samples;Min_cycle;Max_cycle;Signal;HPM_P1;HPM_P2
2023/03/28 00:01:10;;;;;;;0.83;0.83;;;0.20;99.90;;;;;;5012917;28;20464;-51
2023/03/28 00:03:38;;;;;;;1.20;0.80;;;0.20;99.90;;;;;;5002118;28;20456;-50
2023/03/28 00:06:08;;;;;;;0.97;0.70;;;0.20;99.90;;;;;;5007691;28;20468;-51
2023/03/28 00:08:38;;;;;;;0.83;0.83;;;0.10;99.90;;;;;;4992113;28;20485;-51
2023/03/28 00:11:06;;;;;;;1.10;1.00;;;0.10;99.90;;;;;;4992690;28;20867;-51
2023/03/28 00:13:33;;;;;;;0.80;0.80;;;0.20;99.90;;;;;;5001463;28;20521;-50
2023/03/28 00:16:07;;;;;;;0.77;0.73;;;0.10;99.90;;;;;;5004470;28;20522;-51
2023/03/28 00:18:36;;;;;;;0.60;0.60;;;0.10;99.90;;;;;;5009969;28;20464;-51
2023/03/28 00:21:03;;;;;;;0.80;0.80;;;0.10;99.90;;;;;;5010803;28;20488;-51
2023/03/28 00:23:32;;;;;;;1.20;0.70;;;0.10;99.90;;;;;;5011646;28;20447;-51
2023/03/28 00:26:07;;;;;;;0.70;0.70;;;0.10;99.90;;;;;;5010914;28;20526;-51
2023/03/28 00:28:34;;;;;;;1.27;0.90;;;0.10;99.90;;;;;;5010024;28;20572;-51
2023/03/28 00:31:06;;;;;;;1.07;0.70;;;0.10;99.90;;;;;;5011957;28;20494;-51
2023/03/28 00:33:33;;;;;;;0.90;0.90;;;0.10;99.90;;;;;;5011506;28;20471;-51
2023/03/28 00:36:00;;;;;;;1.17;0.80;;;0.10;99.90;;;;;;5009925;28;20460;-51
2023/03/28 00:38:27;;;;;;;1.87;0.90;;;0.10;99.90;;;;;;5010319;28;20953;-51
2023/03/28 00:40:56;;;;;;;4.57;0.90;;;0.10;99.90;;;;;;5011886;28;20468;-51
2023/03/28 00:43:37;;;;;;;1.83;1.10;;;0.00;99.90;;;;;;5012055;28;20455;-51
2023/03/28 00:46:10;;;;;;;2.30;1.20;;;0.10;99.90;;;;;;5009163;28;20567;-51
2023/03/28 00:48:38;;;;;;;1.47;0.90;;;0.10;99.90;;;;;;5010530;28;20547;-51
2023/03/28 00:51:05;;;;;;;1.00;0.90;;;0.10;99.90;;;;;;5011251;28;20900;-53
2023/03/28 00:53:34;;;;;;;5.23;1.50;;;0.10;99.90;;;;;;5009320;28;20527;-53
2023/03/28 00:56:04;;;;;;;1.83;1.10;;;0.10;99.90;;;;;;5008525;28;20843;-53
2023/03/28 00:58:34;;;;;;;1.60;0.90;;;0.10;99.90;;;;;;5009873;28;20468;-53
2023/03/28 01:01:00;;;;;;;4.27;1.43;;;0.20;99.90;;;;;;5008603;28;20484;-52
2023/03/28 01:03:32;;;;;;;5.17;1.00;;;0.20;99.90;;;;;;5006322;28;20461;-52
2023/03/28 01:06:02;;;;;;;1.13;0.90;;;0.10;99.90;;;;;;5016494;28;20522;-51
2023/03/28 01:08:32;;;;;;;3.80;1.40;;;0.10;99.90;;;;;;5006510;28;20484;-53
2023/03/28 01:11:06;;;;;;;1.27;1.10;;;0.10;99.90;;;;;;5010106;28;20534;-54
2023/03/28 01:13:35;;;;;;;1.10;1.03;;;0.10;99.90;;;;;;5006188;28;20460;-52
2023/03/28 01:16:02;;;;;;;1.20;0.80;;;0.10;99.90;;;;;;5005065;28;20488;-51
2023/03/28 01:18:33;;;;;;;1.63;1.17;;;0.20;99.90;;;;;;5012356;28;20832;-52
2023/03/28 01:21:53;;;;;;;3.17;1.20;;;0.20;99.90;;;;;;5015211;28;20513;-51
2023/03/28 01:24:42;;;;;;;1.00;1.00;;;0.30;99.90;;;;;;5013572;28;20452;-53
2023/03/28 01:27:13;;;;;;;1.10;1.00;;;0.30;99.90;;;;;;5013933;28;20491;-51
2023/03/28 01:30:11;;;;;;;2.40;1.03;;;0.40;99.90;;;;;;5009812;28;20507;-52
2023/03/28 01:33:08;;;;;;;1.37;0.97;;;0.40;99.90;;;;;;5013009;28;20472;-51
2023/03/28 01:35:52;;;;;;;3.50;1.37;;;0.60;99.90;;;;;;5008680;28;20812;-53
2023/03/28 01:38:29;;;;;;;1.13;1.00;;;0.60;99.90;;;;;;5014238;28;20529;-53
2023/03/28 01:41:02;;;;;;;1.53;1.13;;;0.60;99.90;;;;;;5012141;28;20499;-52
2023/03/28 01:43:36;;;;;;;1.80;1.00;;;0.70;99.90;;;;;;5012284;28;20464;-53
2023/03/28 01:46:10;;;;;;;2.10;1.03;;;0.70;99.90;;;;;;5008206;28;20468;-52
2023/03/28 01:48:46;;;;;;;1.50;1.37;;;0.70;99.90;;;;;;5009982;28;20487;-53
2023/03/28 01:51:23;;;;;;;1.90;1.23;;;0.60;99.90;;;;;;5005919;28;20444;-53
2023/03/28 01:53:57;;;;;;;0.80;0.80;;;0.50;99.90;;;;;;5014229;28;20447;-52
2023/03/28 01:56:30;;;;;;;0.90;0.90;;;0.30;99.90;;;;;;5004013;28;20487;-52
2023/03/28 01:59:07;;;;;;;2.70;1.00;;;0.20;99.90;;;;;;5013485;28;20865;-54
2023/03/28 02:01:38;;;;;;;0.90;0.90;;;0.20;99.90;;;;;;5014148;28;20447;-51
2023/03/28 02:04:07;;;;;;;1.60;1.10;;;0.10;99.90;;;;;;5013888;28;20867;-53
2023/03/28 02:06:38;;;;;;;4.30;1.10;;;0.00;99.90;;;;;;5012517;28;20507;-53
2023/03/28 02:09:09;;;;;;;7.60;1.20;;;0.00;99.90;;;;;;5012514;28;20491;-51
2023/03/28 02:11:37;;;;;;;2.13;1.00;;;-0.10;99.90;;;;;;5014114;28;20448;-52
2023/03/28 02:14:08;;;;;;;1.00;0.90;;;-0.10;99.90;;;;;;5012415;28;20503;-52
2023/03/28 02:16:40;;;;;;;1.50;1.00;;;-0.20;99.90;;;;;;5011977;28;20875;-51
2023/03/28 02:19:08;;;;;;;3.07;0.90;;;-0.20;99.90;;;;;;5012916;28;21057;-51
2023/03/28 02:21:40;;;;;;;1.60;1.00;;;-0.20;99.90;;;;;;5013728;28;20466;-51
2023/03/28 02:24:11;;;;;;;0.90;0.90;;;-0.20;99.90;;;;;;5010323;28;20491;-52
2023/03/28 02:26:38;;;;;;;1.40;0.90;;;-0.20;99.90;;;;;;5000008;28;20970;-51
2023/03/28 02:29:07;;;;;;;3.00;1.30;;;-0.20;99.90;;;;;;5011851;28;20568;-53
2023/03/28 02:31:34;;;;;;;1.30;1.20;;;-0.20;99.90;;;;;;5013784;28;20452;-53
2023/03/28 02:34:02;;;;;;;1.10;1.00;;;-0.20;99.90;;;;;;5011568;28;20452;-53
2023/03/28 02:36:42;;;;;;;4.30;1.47;;;-0.20;99.90;;;;;;5010035;28;20467;-54
2023/03/28 02:39:24;;;;;;;1.93;1.30;;;-0.20;99.90;;;;;;5013397;28;20836;-54
2023/03/28 02:42:05;;;;;;;1.07;0.97;;;-0.20;99.90;;;;;;5008663;28;20954;-53
2023/03/28 02:44:47;;;;;;;2.43;1.20;;;-0.10;99.90;;;;;;5005322;28;20476;-53
2023/03/28 02:47:18;;;;;;;1.20;0.90;;;0.00;99.90;;;;;;5013394;28;20444;-53
2023/03/28 02:49:50;;;;;;;1.40;1.30;;;0.00;99.90;;;;;;5005711;28;20492;-53
2023/03/28 02:52:29;;;;;;;1.07;1.07;;;0.10;99.90;;;;;;5013516;28;20807;-52
2023/03/28 02:55:02;;;;;;;1.83;1.20;;;0.10;99.90;;;;;;5010226;28;20492;-52
2023/03/28 02:57:32;;;;;;;3.03;1.53;;;0.20;99.90;;;;;;5006924;28;20556;-53
2023/03/28 03:00:04;;;;;;;2.90;1.47;;;0.20;99.90;;;;;;5004330;28;21071;-53
2023/03/28 03:02:32;;;;;;;1.83;1.20;;;0.30;99.90;;;;;;5007295;28;20530;-52
2023/03/28 03:05:00;;;;;;;1.50;1.40;;;0.40;99.90;;;;;;5012273;28;20824;-53
2023/03/28 03:07:28;;;;;;;4.10;1.57;;;0.40;99.90;;;;;;5012979;28;20452;-53
2023/03/28 03:09:54;;;;;;;3.27;1.63;;;0.40;99.90;;;;;;5011567;28;20550;-53
2023/03/28 03:12:23;;;;;;;3.10;1.50;;;0.40;99.90;;;;;;5013311;28;20506;-53
2023/03/28 03:14:50;;;;;;;1.40;1.30;;;0.30;99.90;;;;;;5011963;28;20478;-53
2023/03/28 03:17:17;;;;;;;1.40;1.30;;;0.30;99.90;;;;;;5012107;28;20460;-53
2023/03/28 03:19:43;;;;;;;4.53;1.33;;;0.20;99.90;;;;;;5006509;28;20481;-53
2023/03/28 03:22:10;;;;;;;1.93;1.60;;;0.20;99.90;;;;;;5014448;28;20513;-53
2023/03/28 03:24:37;;;;;;;1.90;1.30;;;0.10;99.90;;;;;;5012712;28;20465;-52
2023/03/28 03:27:04;;;;;;;1.50;1.33;;;0.00;99.90;;;;;;5011541;28;20505;-53
2023/03/28 03:29:31;;;;;;;7.00;1.37;;;0.00;99.90;;;;;;5013544;28;20519;-53
2023/03/28 03:31:58;;;;;;;4.70;1.67;;;-0.10;99.90;;;;;;5007079;28;20491;-52
2023/03/28 03:34:25;;;;;;;1.73;1.30;;;-0.10;99.90;;;;;;5010261;28;20947;-53
2023/03/28 03:36:53;;;;;;;2.93;1.50;;;-0.10;99.90;;;;;;5012645;28;20448;-53
2023/03/28 03:39:20;;;;;;;6.40;1.67;;;0.00;99.90;;;;;;5009107;28;21049;-52
2023/03/28 03:41:46;;;;;;;5.37;1.50;;;0.00;99.90;;;;;;5011819;28;20472;-53
2023/03/28 03:44:13;;;;;;;5.90;1.70;;;-0.10;99.90;;;;;;5011464;28;20495;-52
2023/03/28 03:46:41;;;;;;;2.00;1.40;;;-0.10;99.90;;;;;;5012533;28;21001;-52
2023/03/28 03:49:09;;;;;;;2.20;1.50;;;-0.10;99.90;;;;;;5011810;28;20496;-52
2023/03/28 03:51:36;;;;;;;3.63;1.47;;;-0.10;99.90;;;;;;5009971;28;20464;-52
2023/03/28 03:54:02;;;;;;;2.80;1.80;;;-0.20;99.90;;;;;;5011913;28;20532;-53
2023/03/28 03:56:29;;;;;;;4.97;1.80;;;-0.20;99.90;;;;;;5012539;28;20453;-52
2023/03/28 03:58:56;;;;;;;1.67;1.57;;;-0.20;99.90;;;;;;5011531;28;21074;-51
2023/03/28 04:01:24;;;;;;;4.27;1.37;;;-0.20;99.90;;;;;;5012247;28;20517;-52
2023/03/28 04:03:52;;;;;;;4.83;2.10;;;-0.30;99.90;;;;;;5010850;28;21170;-53
2023/03/28 04:06:19;;;;;;;6.50;1.60;;;-0.20;99.90;;;;;;4992714;28;20445;-53
2023/03/28 04:08:45;;;;;;;2.53;1.90;;;-0.20;99.90;;;;;;4996283;28;20471;-52
2023/03/28 04:11:12;;;;;;;4.07;2.00;;;-0.30;99.90;;;;;;5011548;28;20494;-51
2023/03/28 04:13:38;;;;;;;3.20;1.70;;;-0.30;99.90;;;;;;5011007;28;20880;-52
2023/03/28 04:16:06;;;;;;;4.67;1.93;;;-0.30;99.90;;;;;;5011897;28;20934;-54
2023/03/28 04:18:33;;;;;;;2.70;1.70;;;-0.30;99.90;;;;;;5008248;28;20465;-53
2023/03/28 04:21:02;;;;;;;4.57;1.73;;;-0.30;99.90;;;;;;5006214;28;20511;-53
2023/03/28 04:23:29;;;;;;;6.77;1.77;;;-0.30;99.90;;;;;;5009887;28;20464;-51
2023/03/28 04:25:56;;;;;;;4.10;1.83;;;-0.40;99.90;;;;;;5004728;28;20468;-53
2023/03/28 04:28:24;;;;;;;10.17;2.53;;;-0.40;99.90;;;;;;5010718;28;20958;-53
2023/03/28 04:30:53;;;;;;;5.43;2.70;;;-0.30;99.90;;;;;;5007426;28;20856;-52
2023/03/28 04:33:23;;;;;;;3.60;1.90;;;-0.20;99.90;;;;;;5009786;28;20814;-53
2023/03/28 04:35:55;;;;;;;6.57;2.70;;;-0.10;99.90;;;;;;5009823;28;20469;-54
2023/03/28 04:38:25;;;;;;;1.37;1.10;;;-0.10;99.90;;;;;;5010039;28;21469;-53
2023/03/28 04:40:56;;;;;;;4.63;2.30;;;0.00;99.90;;;;;;5011298;28;20487;-53
2023/03/28 04:43:23;;;;;;;3.10;1.77;;;0.00;99.90;;;;;;5010186;28;20470;-53
2023/03/28 04:45:50;;;;;;;5.87;1.57;;;0.00;99.90;;;;;;5008566;28;20880;-53
2023/03/28 04:48:16;;;;;;;4.43;1.43;;;0.00;99.90;;;;;;5003271;28;20456;-52
2023/03/28 04:50:43;;;;;;;4.83;2.00;;;-0.10;99.90;;;;;;5011760;28;20488;-52
2023/03/28 04:53:11;;;;;;;4.73;1.70;;;-0.10;99.90;;;;;;5014610;28;20464;-54
2023/03/28 04:55:39;;;;;;;3.13;2.00;;;-0.10;99.90;;;;;;5014309;28;20464;-52
2023/03/28 04:58:05;;;;;;;3.30;1.63;;;0.00;99.90;;;;;;5013609;28;20880;-53
2023/03/28 05:00:32;;;;;;;2.33;1.50;;;0.00;99.90;;;;;;5011868;28;20554;-52
2023/03/28 05:02:59;;;;;;;1.70;1.60;;;0.10;99.90;;;;;;5014287;28;20838;-52
2023/03/28 05:05:26;;;;;;;2.73;1.80;;;0.20;99.90;;;;;;5009046;28;20471;-52
2023/03/28 05:07:52;;;;;;;3.20;2.23;;;0.20;99.90;;;;;;5011023;28;20937;-52
2023/03/28 05:10:19;;;;;;;3.67;1.60;;;0.30;99.90;;;;;;5014510;28;20530;-52
2023/03/28 05:12:48;;;;;;;3.97;1.70;;;0.20;99.90;;;;;;5014493;28;20475;-52
2023/03/28 05:15:14;;;;;;;3.60;1.80;;;0.20;99.90;;;;;;5013613;28;21020;-52
2023/03/28 05:17:41;;;;;;;4.27;1.60;;;0.20;99.90;;;;;;5013653;28;20542;-52
2023/03/28 05:20:09;;;;;;;1.53;1.37;;;0.10;99.90;;;;;;5008412;28;21019;-51
2023/03/28 05:22:36;;;;;;;1.60;1.40;;;0.10;99.90;;;;;;5013657;28;20843;-52
2023/03/28 05:25:03;;;;;;;3.37;1.93;;;0.10;99.90;;;;;;5014031;28;20502;-52
2023/03/28 05:27:30;;;;;;;6.60;2.00;;;0.00;99.90;;;;;;5014389;28;20464;-52
2023/03/28 05:29:58;;;;;;;2.50;1.60;;;0.00;99.90;;;;;;5013890;28;20484;-51
2023/03/28 05:32:24;;;;;;;2.50;1.87;;;0.00;99.90;;;;;;5010778;28;20456;-52
2023/03/28 05:34:51;;;;;;;4.33;1.93;;;0.00;99.90;;;;;;5013728;28;20464;-51
2023/03/28 05:37:18;;;;;;;2.50;1.60;;;0.00;99.90;;;;;;5004935;28;20896;-53
2023/03/28 05:39:44;;;;;;;3.17;1.70;;;-0.10;99.90;;;;;;5013816;28;20542;-52
2023/03/28 05:42:11;;;;;;;6.63;1.80;;;-0.10;99.90;;;;;;5013541;28;21029;-53
2023/03/28 05:44:38;;;;;;;2.33;1.40;;;0.00;99.90;;;;;;5014000;28;20506;-52
2023/03/28 05:47:06;;;;;;;1.77;1.63;;;0.00;99.90;;;;;;5014211;28;20444;-52
2023/03/28 05:49:32;;;;;;;2.87;1.80;;;0.00;99.90;;;;;;5002733;28;20480;-52
2023/03/28 05:51:59;;;;;;;3.40;1.50;;;0.10;99.90;;;;;;5009010;28;20463;-53
2023/03/28 05:54:25;;;;;;;4.60;1.87;;;0.30;99.90;;;;;;5011210;28;20526;-52
2023/03/28 05:56:52;;;;;;;6.20;2.00;;;0.50;99.90;;;;;;5010901;28;20451;-52
2023/03/28 05:59:19;;;;;;;1.90;1.10;;;0.70;99.90;;;;;;5007839;28;20480;-52
2023/03/28 06:01:47;;;;;;;2.63;1.70;;;0.90;83.00;;;;;;5008306;28;20452;-52
2023/03/28 06:04:15;;;;;;;1.63;1.33;;;0.90;41.00;;;;;;5009499;28;20456;-52
2023/03/28 06:06:42;;;;;;;2.90;1.93;;;1.20;44.00;;;;;;5012822;28;20514;-51
2023/03/28 06:09:09;;;;;;;2.40;1.40;;;1.20;66.50;;;;;;5012625;28;20481;-52
2023/03/28 06:11:36;;;;;;;1.43;1.30;;;1.30;74.70;;;;;;5003686;28;20539;-53
2023/03/28 06:14:02;;;;;;;3.97;1.50;;;1.60;72.70;;;;;;5013017;28;20505;-52
2023/03/28 06:16:29;;;;;;;1.53;1.10;;;1.70;99.90;;;;;;5012470;28;20466;-52
2023/03/28 06:18:56;;;;;;;1.90;1.80;;;1.60;99.90;;;;;;5012271;28;20468;-51
2023/03/28 06:21:24;;;;;;;3.70;1.53;;;1.40;99.90;;;;;;5011687;28;20942;-52
2023/03/28 06:23:50;;;;;;;3.70;1.70;;;1.30;98.40;;;;;;5009313;28;20457;-52
2023/03/28 06:26:17;;;;;;;1.50;1.50;;;1.20;90.60;;;;;;5013975;28;20462;-54
2023/03/28 06:28:44;;;;;;;3.83;1.43;;;1.30;92.50;;;;;;5008281;28;20552;-53
2023/03/28 06:31:11;;;;;;;4.70;1.70;;;1.20;99.90;;;;;;5009188;28;20480;-52
2023/03/28 06:33:39;;;;;;;2.57;1.57;;;1.10;99.90;;;;;;5011396;28;20464;-52
2023/03/28 06:36:07;;;;;;;2.90;1.53;;;1.00;95.20;;;;;;5006022;28;20555;-53
2023/03/28 06:38:34;;;;;;;5.03;1.90;;;1.20;95.00;;;;;;5011129;28;20506;-52
2023/03/28 06:41:02;;;;;;;3.50;1.40;;;1.30;99.90;;;;;;5015104;28;20974;-50
2023/03/28 06:43:29;;;;;;;2.77;1.40;;;1.30;99.90;;;;;;5009033;28;20594;-53
2023/03/28 06:45:56;;;;;;;2.90;2.10;;;1.50;99.90;;;;;;4988681;28;20464;-51
2023/03/28 06:48:28;;;;;;;4.63;1.47;;;1.50;99.90;;;;;;4998728;28;20496;-52
2023/03/28 06:50:54;;;;;;;1.50;1.40;;;1.50;99.90;;;;;;5024428;22;21165;-53
2023/03/28 06:53:21;;;;;;;2.33;1.57;;;1.70;99.90;;;;;;5017465;28;20467;-52
2023/03/28 06:55:51;;;;;;;5.60;2.07;;;1.90;99.90;;;;;;5013784;28;20475;-52
2023/03/28 06:58:18;;;;;;;1.60;1.50;;;1.90;99.90;;;;;;5020379;28;20478;-55
2023/03/28 07:00:45;;;;;;;2.53;1.67;;;2.10;99.90;;;;;;5003271;28;20516;-53
2023/03/28 07:03:11;;;;;;;1.40;1.30;;;2.00;99.90;;;;;;5006913;28;20510;-53
2023/03/28 07:05:39;;;;;;;1.63;1.53;;;1.80;99.90;;;;;;5011721;28;20469;-53
2023/03/28 07:08:06;;;;;;;7.00;1.80;;;2.00;99.90;;;;;;5013430;28;20461;-52
2023/03/28 07:10:32;;;;;;;3.30;1.63;;;2.00;99.90;;;;;;5008560;28;20491;-52
2023/03/28 07:13:00;;;;;;;3.00;2.00;;;2.00;99.90;;;;;;4998732;28;20463;-53
2023/03/28 07:15:27;;;;;;;1.47;1.30;;;2.10;99.90;;;;;;5011194;28;20515;-52
2023/03/28 07:17:54;;;;;;;2.13;1.57;;;2.20;99.90;;;;;;5006172;28;20483;-52
2023/03/28 07:20:21;;;;;;;1.93;1.20;;;2.40;99.90;;;;;;5012558;28;20484;-52
2023/03/28 07:22:47;;;;;;;1.63;1.53;;;2.50;99.90;;;;;;5011767;28;20487;-53
2023/03/28 07:25:14;;;;;;;2.30;1.33;;;2.60;27.50;;;;;;5001595;28;20487;-54
2023/03/28 07:27:40;;;;;;;2.33;1.20;;;3.10;34.20;;;;;;5001932;28;20514;-52
2023/03/28 07:30:10;;;;;;;4.00;1.53;;;3.20;71.40;;;;;;5001331;28;21088;-52
2023/03/28 07:32:37;;;;;;;4.00;1.40;;;3.10;55.60;;;;;;5011970;28;20460;-53
2023/03/28 07:35:05;;;;;;;2.53;1.20;;;3.00;60.40;;;;;;5007351;28;20546;-53
2023/03/28 07:37:32;;;;;;;2.53;1.33;;;3.20;70.20;;;;;;5004457;28;20533;-51
2023/03/28 07:39:59;;;;;;;4.40;1.30;;;3.50;81.60;;;;;;5009629;28;20887;-52
2023/03/28 07:42:26;;;;;;;1.73;1.50;;;3.40;99.90;;;;;;5008987;28;20464;-52
2023/03/28 07:44:53;;;;;;;5.23;1.50;;;3.90;93.80;;;;;;5000205;28;20460;-53
2023/03/28 07:47:21;;;;;;;4.40;1.30;;;3.80;99.90;;;;;;5005339;28;20461;-52
2023/03/28 07:49:48;;;;;;;3.53;1.37;;;3.50;99.90;;;;;;5005573;28;20495;-53
2023/03/28 07:52:15;;;;;;;3.70;1.60;;;3.50;87.20;;;;;;5007949;28;20480;-53
2023/03/28 07:54:41;;;;;;;4.23;2.00;;;3.40;94.80;;;;;;5007006;28;20453;-52
2023/03/28 07:57:08;;;;;;;3.50;1.43;;;3.50;90.10;;;;;;5015619;28;20535;-52
2023/03/28 07:59:34;;;;;;;1.87;1.20;;;3.80;99.70;;;;;;5012129;28;20503;-53
2023/03/28 08:02:01;;;;;;;1.57;1.47;;;3.90;99.90;;;;;;5003761;28;20523;-51
2023/03/28 08:04:29;;;;;;;3.70;1.33;;;4.10;99.90;;;;;;5003483;28;20493;-52
2023/03/28 08:06:56;;;;;;;4.07;1.87;;;3.90;99.90;;;;;;5011000;28;20460;-52
2023/03/28 08:09:23;;;;;;;2.47;1.47;;;4.10;99.90;;;;;;5007733;28;20950;-52
2023/03/28 08:11:50;;;;;;;3.63;1.57;;;4.20;99.90;;;;;;5005434;28;20516;-53
2023/03/28 08:14:18;;;;;;;2.40;1.30;;;4.30;99.90;;;;;;5003722;28;20554;-52
2023/03/28 08:16:45;;;;;;;1.53;1.43;;;4.60;99.90;;;;;;5001498;28;20492;-52
2023/03/28 08:19:13;;;;;;;5.43;1.30;;;4.60;99.90;;;;;;5006894;28;20550;-52
2023/03/28 08:21:40;;;;;;;4.20;1.47;;;4.80;99.90;;;;;;4998019;28;20507;-53
2023/03/28 08:24:09;;;;;;;2.27;1.40;;;4.70;99.90;;;;;;5002671;28;20456;-57
2023/03/28 08:26:36;;;;;;;2.20;1.40;;;4.40;99.90;;;;;;4997588;28;20465;-53
2023/03/28 08:29:03;;;;;;;2.73;1.20;;;4.30;99.90;;;;;;5001087;28;20467;-51
2023/03/28 08:31:30;;;;;;;1.30;1.20;;;4.70;99.90;;;;;;4997706;28;20870;-52
2023/03/28 08:33:58;;;;;;;2.20;1.20;;;5.00;99.90;;;;;;5014994;28;20878;-52
2023/03/28 08:36:26;;;;;;;1.80;1.40;;;5.40;99.90;;;;;;5013079;28;20461;-52
2023/03/28 08:38:59;;;;;;;1.57;1.47;;;4.90;99.90;;;;;;4998861;28;20975;-52
2023/03/28 08:41:41;;;;;;;2.40;2.03;;;4.90;99.90;;;;;;4996658;28;20599;-54
2023/03/28 08:44:23;;;;;;;6.30;1.53;;;4.90;99.90;;;;;;4992893;28;20515;-53
2023/03/28 08:46:55;;;;;;;1.50;1.37;;;5.00;99.90;;;;;;4993216;28;20496;-54
2023/03/28 08:49:22;;;;;;;1.30;1.20;;;5.40;99.90;;;;;;4994460;28;20590;-53
2023/03/28 08:51:53;;;;;;;3.33;1.60;;;5.20;99.90;;;;;;4988941;28;20598;-52
2023/03/28 08:54:24;;;;;;;5.57;1.60;;;5.10;99.90;;;;;;4989599;28;20479;-52
2023/03/28 08:56:54;;;;;;;1.03;0.93;;;5.70;99.90;;;;;;4989972;28;20522;-51
2023/03/28 08:59:25;;;;;;;1.37;1.30;;;5.70;99.90;;;;;;5004268;28;20464;-52
2023/03/28 09:01:52;;;;;;;2.20;1.17;;;5.30;99.90;;;;;;4994337;28;20488;-52
2023/03/28 09:04:27;;;;;;;2.03;1.57;;;4.90;99.90;;;;;;5004339;28;20946;-52
2023/03/28 09:06:59;;;;;;;2.87;1.40;;;4.80;99.90;;;;;;5013930;28;20467;-52
2023/03/28 09:09:37;;;;;;;3.90;1.57;;;4.40;99.90;;;;;;5005636;28;20917;-52
2023/03/28 09:12:19;;;;;;;3.23;2.10;;;4.50;99.90;;;;;;4993373;28;20555;-52
2023/03/28 09:15:11;;;;;;;1.00;1.00;;;4.70;99.90;;;;;;5005718;28;20513;-52
2023/03/28 09:17:46;;;;;;;1.57;1.47;;;4.80;99.90;;;;;;5005991;28;20461;-53
2023/03/28 09:20:18;;;;;;;5.13;1.33;;;4.70;99.90;;;;;;5009783;28;20476;-53
2023/03/28 09:22:57;;;;;;;3.37;1.60;;;4.70;99.90;;;;;;5000158;28;20452;-54
2023/03/28 09:25:32;;;;;;;2.60;1.27;;;4.70;99.90;;;;;;5009405;28;20460;-53
2023/03/28 09:28:06;;;;;;;3.43;1.13;;;4.40;99.90;;;;;;5004709;28;20524;-53
2023/03/28 09:30:36;;;;;;;2.70;1.63;;;4.40;99.90;;;;;;5004626;28;20546;-52
2023/03/28 09:33:08;;;;;;;2.53;1.50;;;4.70;99.90;;;;;;5000001;28;20516;-52
2023/03/28 09:35:35;;;;;;;6.00;1.23;;;4.60;99.90;;;;;;5002415;28;20507;-52
2023/03/28 09:38:04;;;;;;;1.10;1.00;;;4.40;99.90;;;;;;5012909;28;20460;-52
2023/03/28 09:40:34;;;;;;;4.27;2.00;;;4.20;99.90;;;;;;5007395;28;21627;-52
2023/03/28 09:43:08;;;;;;;1.57;1.40;;;4.20;99.90;;;;;;5007723;28;20490;-52
2023/03/28 09:45:42;;;;;;;1.73;1.30;;;4.40;99.90;;;;;;5011712;28;20454;-51
2023/03/28 09:48:14;;;;;;;1.30;1.20;;;4.20;99.90;;;;;;5001655;28;20491;-52
2023/03/28 09:50:41;;;;;;;6.67;1.70;;;4.20;99.90;;;;;;5000413;28;20522;-52
2023/03/28 09:53:20;;;;;;;1.20;1.10;;;4.60;99.90;;;;;;5000254;28;20519;-53
2023/03/28 09:55:49;;;;;;;2.80;1.30;;;4.40;99.90;;;;;;5002024;28;20472;-52
2023/03/28 09:58:17;;;;;;;3.63;1.10;;;4.30;99.90;;;;;;5008919;28;20460;-52
2023/03/28 10:00:47;;;;;;;1.03;0.93;;;4.50;99.90;;;;;;5001506;28;20483;-52
2023/03/28 10:03:27;;;;;;;1.33;1.23;;;5.10;99.90;;;;;;5006574;28;20502;-53
2023/03/28 10:05:55;;;;;;;1.13;1.00;;;7.20;99.90;;;;;;4999522;28;20464;-52
2023/03/28 10:08:25;;;;;;;1.53;1.33;;;7.60;99.90;;;;;;5002458;28;20954;-52
2023/03/28 10:11:00;;;;;;;1.00;1.00;;;8.00;99.90;;;;;;5002611;28;21031;-52
2023/03/28 10:13:27;;;;;;;2.40;0.87;;;8.70;99.90;;;;;;5007338;28;20458;-52
2023/03/28 10:15:58;;;;;;;1.20;1.03;;;8.70;99.90;;;;;;5015634;28;20468;-53
2023/03/28 10:18:28;;;;;;;1.37;0.80;;;9.30;99.90;;;;;;5015339;28;20448;-52
2023/03/28 10:20:55;;;;;;;2.40;1.20;;;9.00;99.90;;;;;;5004669;28;20833;-53
2023/03/28 10:23:23;;;;;;;5.20;1.23;;;9.30;99.90;;;;;;5004401;28;20456;-54
2023/03/28 10:25:51;;;;;;;2.13;1.03;;;8.50;99.90;;;;;;5006138;28;21008;-53
2023/03/28 10:28:27;;;;;;;0.87;0.87;;;7.80;99.90;;;;;;5011144;28;20455;-52
2023/03/28 10:30:56;;;;;;;1.23;1.00;;;7.70;99.90;;;;;;5010765;28;20483;-52
2023/03/28 10:33:28;;;;;;;1.77;0.83;;;7.30;99.90;;;;;;5006809;28;20473;-53
2023/03/28 10:35:57;;;;;;;1.10;1.00;;;6.90;99.90;;;;;;4996637;28;20558;-53
2023/03/28 10:38:25;;;;;;;2.67;0.90;;;6.90;99.90;;;;;;5003788;28;21359;-52
2023/03/28 10:40:57;;;;;;;2.30;1.30;;;7.30;99.90;;;;;;4998804;28;20519;-52
2023/03/28 10:43:32;;;;;;;1.10;1.00;;;6.90;99.90;;;;;;5012773;28;20530;-52
2023/03/28 10:46:01;;;;;;;0.80;0.80;;;7.20;99.90;;;;;;5003985;28;20562;-52
2023/03/28 10:48:32;;;;;;;0.90;0.90;;;6.50;99.90;;;;;;5011413;28;20454;-52
2023/03/28 10:51:07;;;;;;;1.70;1.20;;;6.10;99.90;;;;;;5001792;28;20544;-52
2023/03/28 10:53:46;;;;;;;1.23;1.00;;;7.00;99.90;;;;;;5003275;28;20479;-52
2023/03/28 10:56:24;;;;;;;1.33;0.90;;;7.20;99.90;;;;;;5008612;28;20469;-52
2023/03/28 10:59:02;;;;;;;1.00;0.90;;;7.60;99.90;;;;;;5011453;28;20960;-52
2023/03/28 11:01:35;;;;;;;4.10;1.20;;;7.80;99.90;;;;;;5002344;28;20760;-53
2023/03/28 11:04:15;;;;;;;2.80;1.00;;;7.00;99.90;;;;;;5002831;28;20483;-53
2023/03/28 11:06:47;;;;;;;0.83;0.83;;;7.40;99.90;;;;;;5003837;28;20467;-52
2023/03/28 11:09:24;;;;;;;0.90;0.80;;;7.90;99.90;;;;;;5005494;28;20469;-54
2023/03/28 11:12:01;;;;;;;1.60;1.10;;;8.30;99.90;;;;;;5006529;28;20490;-52
2023/03/28 11:14:45;;;;;;;1.20;1.10;;;8.70;99.90;;;;;;5002549;28;20468;-52
2023/03/28 11:17:19;;;;;;;0.83;0.83;;;8.60;99.90;;;;;;5004451;28;20489;-53
2023/03/28 11:20:19;;;;;;;1.87;0.97;;;7.80;99.90;;;;;;5002237;28;20494;-53
2023/03/28 11:23:00;;;;;;;1.23;1.13;;;8.10;99.90;;;;;;5002937;28;20871;-53
2023/03/28 11:25:35;;;;;;;6.00;1.47;;;9.10;99.90;;;;;;5003442;28;20521;-53
2023/03/28 11:28:11;;;;;;;7.13;1.20;;;8.70;99.90;;;;;;5004016;28;20469;-53
2023/03/28 11:30:41;;;;;;;1.33;0.97;;;8.40;99.90;;;;;;5011289;28;20473;-51
2023/03/28 11:33:14;;;;;;;0.80;0.80;;;8.10;99.90;;;;;;5006279;28;20492;-53
2023/03/28 11:35:47;;;;;;;1.17;1.07;;;8.20;99.90;;;;;;5003922;28;20530;-52
2023/03/28 11:38:21;;;;;;;1.23;1.13;;;8.40;99.90;;;;;;5005250;28;20471;-52
2023/03/28 11:40:52;;;;;;;2.23;1.13;;;8.20;99.90;;;;;;5007865;28;20573;-53
2023/03/28 11:43:27;;;;;;;1.30;1.20;;;8.00;99.90;;;;;;5006901;28;20457;-53
2023/03/28 11:46:02;;;;;;;0.90;0.90;;;7.70;99.90;;;;;;5004186;28;20462;-52
2023/03/28 11:48:35;;;;;;;1.97;1.10;;;7.30;99.90;;;;;;4998784;28;20491;-52
2023/03/28 11:51:07;;;;;;;1.53;1.40;;;7.40;99.90;;;;;;5001702;28;20493;-51
2023/03/28 11:53:42;;;;;;;1.00;0.93;;;7.60;99.90;;;;;;5005126;28;20492;-52
2023/03/28 11:56:17;;;;;;;1.30;1.00;;;7.80;99.90;;;;;;5006314;28;21094;-52
2023/03/28 11:58:48;;;;;;;1.07;1.00;;;7.20;99.90;;;;;;4992941;28;20579;-52
2023/03/28 12:01:20;;;;;;;2.50;1.10;;;7.40;99.90;;;;;;5004085;28;21074;-50
2023/03/28 12:03:58;;;;;;;10.13;2.53;;;7.60;99.90;;;;;;5001591;28;20491;-51
2023/03/28 12:06:30;;;;;;;13.80;2.67;;;7.20;99.90;;;;;;4999882;28;20462;-50
2023/03/28 12:09:02;;;;;;;11.60;3.47;;;7.80;99.90;;;;;;5001551;28;20544;-51
2023/03/28 12:11:35;;;;;;;17.63;4.33;;;8.20;99.90;;;;;;4997368;28;20488;-52
2023/03/28 12:14:06;;;;;;;7.00;2.57;;;8.40;99.90;;;;;;4998924;28;20872;-52
2023/03/28 12:16:37;;;;;;;6.40;2.70;;;8.30;99.90;;;;;;5000770;28;20450;-52
2023/03/28 12:19:10;;;;;;;5.43;2.10;;;8.40;99.90;;;;;;5000046;28;20454;-51
2023/03/28 12:21:40;;;;;;;5.97;1.97;;;8.80;99.90;;;;;;4998602;28;20500;-51
2023/03/28 12:24:13;;;;;;;9.97;2.23;;;8.70;99.90;;;;;;5000132;28;20484;-51
2023/03/28 12:26:52;;;;;;;3.10;0.83;;;9.30;99.90;;;;;;5001320;28;20477;-51
2023/03/28 12:29:24;;;;;;;5.23;2.00;;;8.50;99.90;;;;;;5004505;28;20458;-52
2023/03/28 12:31:56;;;;;;;1.30;1.20;;;8.90;99.90;;;;;;4999050;28;20467;-51
2023/03/28 12:34:30;;;;;;;2.00;1.20;;;9.10;99.90;;;;;;4999498;28;20489;-50
2023/03/28 12:37:05;;;;;;;2.57;0.97;;;9.30;99.90;;;;;;5005137;28;20465;-51
2023/03/28 12:39:38;;;;;;;2.10;1.20;;;9.30;99.90;;;;;;5002457;28;20490;-51
2023/03/28 12:42:08;;;;;;;1.27;1.10;;;9.10;99.90;;;;;;5002274;28;20463;-51
2023/03/28 12:44:41;;;;;;;1.30;1.20;;;9.50;99.90;;;;;;5000376;28;20475;-55
2023/03/28 12:47:14;;;;;;;0.90;0.90;;;9.00;99.90;;;;;;4999937;28;21049;-51
2023/03/28 12:49:44;;;;;;;1.43;0.90;;;10.50;99.90;;;;;;5003921;28;20513;-51
2023/03/28 12:52:17;;;;;;;1.57;1.00;;;10.50;99.90;;;;;;5012759;22;20559;-53
2023/03/28 12:54:55;;;;;;;1.10;1.10;;;10.60;99.90;;;;;;4999750;28;20465;-54
2023/03/28 12:57:42;;;;;;;0.80;0.80;;;10.30;99.90;;;;;;5001192;28;20501;-54
2023/03/28 13:00:25;;;;;;;4.33;0.80;;;10.70;99.90;;;;;;4998492;28;20582;-52
2023/03/28 13:03:06;;;;;;;1.83;0.60;;;9.80;99.90;;;;;;5001057;28;20482;-54
2023/03/28 13:05:41;;;;;;;1.70;0.90;;;9.40;99.90;;;;;;5003855;28;20463;-53
2023/03/28 13:08:15;;;;;;;1.00;0.90;;;9.60;99.90;;;;;;5002786;28;20462;-53
2023/03/28 13:10:45;;;;;;;0.50;0.50;;;9.90;99.90;;;;;;5006134;28;20516;-54
2023/03/28 13:13:22;;;;;;;1.10;0.80;;;9.40;99.90;;;;;;4999458;28;20833;-54